sensor_id;sensor_type;location;lat;lon;timestamp;pressure;altitude;pressure_sealevel;temperature;humidity
69574;BME280;62840;52.366;5.980;2024-01-30T00:02:11;102545.66;;;5.74;74.38
69574;BME280;62840;52.366;5.980;2024-01-30T00:04:37;102544.75;;;5.73;74.54
69574;BME280;62840;52.366;5.980;2024-01-30T00:07:03;102553.75;;;5.69;74.40
69574;BME280;62840;52.366;5.980;2024-01-30T00:09:29;102557.31;;;5.68;74.49
69574;BME280;62840;52.366;5.980;2024-01-30T00:11:55;102552.97;;;5.65;74.42
69574;BME280;62840;52.366;5.980;2024-01-30T00:14:24;102550.38;;;5.64;74.41
69574;BME280;62840;52.366;5.980;2024-01-30T00:16:50;102560.09;;;5.63;74.31
69574;BME280;62840;52.366;5.980;2024-01-30T00:19:17;102551.34;;;5.61;74.42
69574;BME280;62840;52.366;5.980;2024-01-30T00:21:42;102550.53;;;5.59;74.31
69574;BME280;62840;52.366;5.980;2024-01-30T00:24:09;102559.44;;;5.57;74.41
69574;BME280;62840;52.366;5.980;2024-01-30T00:26:34;102562.19;;;5.55;74.25
69574;BME280;62840;52.366;5.980;2024-01-30T00:29:00;102558.72;;;5.53;74.47
69574;BME280;62840;52.366;5.980;2024-01-30T00:31:29;102553.50;;;5.50;74.58
69574;BME280;62840;52.366;5.980;2024-01-30T00:33:55;102550.94;;;5.49;74.39
69574;BME280;62840;52.366;5.980;2024-01-30T00:36:21;102552.75;;;5.46;74.42
69574;BME280;62840;52.366;5.980;2024-01-30T00:38:47;102544.88;;;5.45;74.44
69574;BME280;62840;52.366;5.980;2024-01-30T00:41:13;102544.97;;;5.42;74.49
69574;BME280;62840;52.366;5.980;2024-01-30T00:43:39;102550.28;;;5.42;74.31
69574;BME280;62840;52.366;5.980;2024-01-30T00:46:05;102545.06;;;5.39;74.29
69574;BME280;62840;52.366;5.980;2024-01-30T00:48:33;102550.47;;;5.36;74.51
69574;BME280;62840;52.366;5.980;2024-01-30T00:50:59;102540.00;;;5.33;74.47
69574;BME280;62840;52.366;5.980;2024-01-30T00:53:25;102545.28;;;5.33;74.56
69574;BME280;62840;52.366;5.980;2024-01-30T00:55:51;102541.81;;;5.31;74.38
69574;BME280;62840;52.366;5.980;2024-01-30T00:58:17;102535.72;;;5.29;74.55
69574;BME280;62840;52.366;5.980;2024-01-30T01:00:43;102538.44;;;5.25;74.34
69574;BME280;62840;52.366;5.980;2024-01-30T01:03:09;102540.28;;;5.23;74.35
69574;BME280;62840;52.366;5.980;2024-01-30T01:05:38;102539.50;;;5.21;74.37
69574;BME280;62840;52.366;5.980;2024-01-30T01:08:04;102533.38;;;5.19;74.47
69574;BME280;62840;52.366;5.980;2024-01-30T01:10:30;102543.06;;;5.19;74.45
69574;BME280;62840;52.366;5.980;2024-01-30T01:12:56;102526.47;;;5.15;74.30
69574;BME280;62840;52.366;5.980;2024-01-30T01:15:22;102531.81;;;5.12;74.25
69574;BME280;62840;52.366;5.980;2024-01-30T01:17:48;102529.25;;;5.11;74.49
69574;BME280;62840;52.366;5.980;2024-01-30T01:20:14;102528.38;;;5.10;74.35
69574;BME280;62840;52.366;5.980;2024-01-30T01:22:42;102526.66;;;5.09;74.46
69574;BME280;62840;52.366;5.980;2024-01-30T01:25:08;102527.63;;;5.07;74.41
69574;BME280;62840;52.366;5.980;2024-01-30T01:27:34;102528.59;;;5.04;74.53
69574;BME280;62840;52.366;5.980;2024-01-30T01:30:00;102516.25;;;5.03;74.50
69574;BME280;62840;52.366;5.980;2024-01-30T01:32:26;102523.38;;;5.01;74.50
69574;BME280;62840;52.366;5.980;2024-01-30T01:34:52;102520.72;;;5.01;74.36
69574;BME280;62840;52.366;5.980;2024-01-30T01:37:18;102524.25;;;5.01;74.49
69574;BME280;62840;52.366;5.980;2024-01-30T01:39:47;102521.66;;;5.00;74.36
69574;BME280;62840;52.366;5.980;2024-01-30T01:42:13;102512.91;;;4.98;74.38
69574;BME280;62840;52.366;5.980;2024-01-30T01:44:39;102514.72;;;4.96;74.35
69574;BME280;62840;52.366;5.980;2024-01-30T01:47:05;102514.72;;;4.96;74.62
69574;BME280;62840;52.366;5.980;2024-01-30T01:49:31;102510.38;;;4.95;74.38
69574;BME280;62840;52.366;5.980;2024-01-30T01:51:58;102507.78;;;4.92;74.52
69574;BME280;62840;52.366;5.980;2024-01-30T01:54:25;102506.91;;;4.91;74.78
69574;BME280;62840;52.366;5.980;2024-01-30T01:56:55;102511.25;;;4.94;74.79
69574;BME280;62840;52.366;5.980;2024-01-30T01:59:22;102511.25;;;4.94;74.81
69574;BME280;62840;52.366;5.980;2024-01-30T02:01:51;102511.25;;;4.94;74.52
69574;BME280;62840;52.366;5.980;2024-01-30T02:04:18;102513.03;;;4.95;74.65
69574;BME280;62840;52.366;5.980;2024-01-30T02:06:44;102513.03;;;4.95;74.65
69574;BME280;62840;52.366;5.980;2024-01-30T02:09:10;102498.94;;;4.93;74.79
69574;BME280;62840;52.366;5.980;2024-01-30T02:11:36;102497.19;;;4.92;74.70
69574;BME280;62840;52.366;5.980;2024-01-30T02:14:05;102499.97;;;4.89;74.65
69574;BME280;62840;52.366;5.980;2024-01-30T02:16:31;102491.22;;;4.87;74.56
69574;BME280;62840;52.366;5.980;2024-01-30T02:18:57;102496.53;;;4.85;74.80
69574;BME280;62840;52.366;5.980;2024-01-30T02:21:26;102491.25;;;4.85;74.70
69574;BME280;62840;52.366;5.980;2024-01-30T02:23:52;102492.91;;;4.88;74.79
69574;BME280;62840;52.366;5.980;2024-01-30T02:26:20;102487.63;;;4.88;74.75
69574;BME280;62840;52.366;5.980;2024-01-30T02:28:46;102492.03;;;4.89;74.68
69574;BME280;62840;52.366;5.980;2024-01-30T02:31:12;102485.81;;;4.90;74.72
69574;BME280;62840;52.366;5.980;2024-01-30T02:33:38;102490.28;;;4.88;74.89
69574;BME280;62840;52.366;5.980;2024-01-30T02:36:04;102490.28;;;4.88;74.75
69574;BME280;62840;52.366;5.980;2024-01-30T02:38:33;102478.09;;;4.83;74.63
69574;BME280;62840;52.366;5.980;2024-01-30T02:40:59;102481.63;;;4.82;74.75
69574;BME280;62840;52.366;5.980;2024-01-30T02:43:25;102488.66;;;4.83;74.72
69574;BME280;62840;52.366;5.980;2024-01-30T02:45:51;102472.03;;;4.80;74.69
69574;BME280;62840;52.366;5.980;2024-01-30T02:48:16;102483.47;;;4.80;74.82
69574;BME280;62840;52.366;5.980;2024-01-30T02:50:42;102474.72;;;4.78;74.73
69574;BME280;62840;52.366;5.980;2024-01-30T02:53:08;102477.34;;;4.78;74.97
69574;BME280;62840;52.366;5.980;2024-01-30T02:55:37;102478.19;;;4.80;74.89
69574;BME280;62840;52.366;5.980;2024-01-30T02:58:03;102478.13;;;4.82;74.76
69574;BME280;62840;52.366;5.980;2024-01-30T03:00:29;102482.50;;;4.83;74.71
69574;BME280;62840;52.366;5.980;2024-01-30T03:02:55;102478.13;;;4.82;74.81
69574;BME280;62840;52.366;5.980;2024-01-30T03:05:21;102471.06;;;4.82;74.86
69574;BME280;62840;52.366;5.980;2024-01-30T03:07:47;102479.00;;;4.82;74.82
69574;BME280;62840;52.366;5.980;2024-01-30T03:10:13;102473.78;;;4.81;74.91
69574;BME280;62840;52.366;5.980;2024-01-30T03:12:41;102462.31;;;4.80;74.87
69574;BME280;62840;52.366;5.980;2024-01-30T03:15:08;102466.72;;;4.81;74.87
69574;BME280;62840;52.366;5.980;2024-01-30T03:17:34;102458.66;;;4.84;74.89
69574;BME280;62840;52.366;5.980;2024-01-30T03:20:00;102466.59;;;4.84;74.89
69574;BME280;62840;52.366;5.980;2024-01-30T03:22:26;102462.25;;;4.83;75.05
69574;BME280;62840;52.366;5.980;2024-01-30T03:24:52;102454.34;;;4.82;74.89
69574;BME280;62840;52.366;5.980;2024-01-30T03:27:17;102453.50;;;4.81;74.86
69574;BME280;62840;52.366;5.980;2024-01-30T03:29:46;102453.50;;;4.81;74.85
69574;BME280;62840;52.366;5.980;2024-01-30T03:32:12;102449.91;;;4.82;74.81
69574;BME280;62840;52.366;5.980;2024-01-30T03:34:38;102442.81;;;4.84;74.92
69574;BME280;62840;52.366;5.980;2024-01-30T03:37:04;102435.69;;;4.87;74.98
69574;BME280;62840;52.366;5.980;2024-01-30T03:39:30;102432.13;;;4.88;75.04
69574;BME280;62840;52.366;5.980;2024-01-30T03:41:56;102433.75;;;4.92;75.12
69574;BME280;62840;52.366;5.980;2024-01-30T03:44:22;102447.78;;;4.94;75.13
69574;BME280;62840;52.366;5.980;2024-01-30T03:46:51;102449.50;;;4.96;75.24
69574;BME280;62840;52.366;5.980;2024-01-30T03:49:16;102438.75;;;5.01;75.19
69574;BME280;62840;52.366;5.980;2024-01-30T03:51:42;102436.03;;;5.04;75.39
69574;BME280;62840;52.366;5.980;2024-01-30T03:54:08;102428.84;;;5.08;75.23
69574;BME280;62840;52.366;5.980;2024-01-30T03:56:34;102421.72;;;5.10;75.48
69574;BME280;62840;52.366;5.980;2024-01-30T03:59:00;102417.25;;;5.12;75.23
69574;BME280;62840;52.366;5.980;2024-01-30T04:01:26;102418.91;;;5.14;75.21
69574;BME280;62840;52.366;5.980;2024-01-30T04:03:55;102420.56;;;5.18;75.18
69574;BME280;62840;52.366;5.980;2024-01-30T04:06:20;102411.72;;;5.19;75.25
69574;BME280;62840;52.366;5.980;2024-01-30T04:08:46;102413.38;;;5.22;75.16
69574;BME280;62840;52.366;5.980;2024-01-30T04:11:12;102411.59;;;5.22;75.25
69574;BME280;62840;52.366;5.980;2024-01-30T04:13:38;102421.31;;;5.22;75.26
69574;BME280;62840;52.366;5.980;2024-01-30T04:16:05;102411.59;;;5.22;75.27
69574;BME280;62840;52.366;5.980;2024-01-30T04:18:32;102404.44;;;5.26;75.25
69574;BME280;62840;52.366;5.980;2024-01-30T04:21:00;102409.66;;;5.28;75.41
69574;BME280;62840;52.366;5.980;2024-01-30T04:23:26;102397.22;;;5.30;75.28
69574;BME280;62840;52.366;5.980;2024-01-30T04:25:52;102397.13;;;5.33;75.41
69574;BME280;62840;52.366;5.980;2024-01-30T04:28:18;102402.44;;;5.33;75.19
69574;BME280;62840;52.366;5.980;2024-01-30T04:30:44;102398.91;;;5.32;75.31
69574;BME280;62840;52.366;5.980;2024-01-30T04:33:10;102394.50;;;5.33;75.33
69574;BME280;62840;52.366;5.980;2024-01-30T04:35:36;102404.16;;;5.34;75.06
69574;BME280;62840;52.366;5.980;2024-01-30T04:38:04;102400.56;;;5.35;75.31
69574;BME280;62840;52.366;5.980;2024-01-30T04:40:30;102405.84;;;5.35;75.11
69574;BME280;62840;52.366;5.980;2024-01-30T04:42:56;102403.22;;;5.35;75.30
69574;BME280;62840;52.366;5.980;2024-01-30T04:45:22;102415.53;;;5.36;75.45
69574;BME280;62840;52.366;5.980;2024-01-30T04:47:48;102421.72;;;5.35;75.36
69574;BME280;62840;52.366;5.980;2024-01-30T04:50:14;102420.03;;;5.34;75.33
69574;BME280;62840;52.366;5.980;2024-01-30T04:52:40;102412.94;;;5.34;75.30
69574;BME280;62840;52.366;5.980;2024-01-30T04:55:09;102422.72;;;5.32;75.28
69574;BME280;62840;52.366;5.980;2024-01-30T04:57:35;102411.28;;;5.32;75.21
69574;BME280;62840;52.366;5.980;2024-01-30T05:00:01;102407.78;;;5.31;75.41
69574;BME280;62840;52.366;5.980;2024-01-30T05:02:27;102405.97;;;5.32;75.51
69574;BME280;62840;52.366;5.980;2024-01-30T05:04:53;102408.66;;;5.30;75.24
69574;BME280;62840;52.366;5.980;2024-01-30T05:07:19;102399.84;;;5.31;75.27
69574;BME280;62840;52.366;5.980;2024-01-30T05:09:44;102400.69;;;5.32;75.52
69574;BME280;62840;52.366;5.980;2024-01-30T05:12:13;102391.84;;;5.33;75.35
69574;BME280;62840;52.366;5.980;2024-01-30T05:14:39;102391.03;;;5.31;75.50
69574;BME280;62840;52.366;5.980;2024-01-30T05:17:05;102382.13;;;5.33;75.47
69574;BME280;62840;52.366;5.980;2024-01-30T05:19:31;102384.59;;;5.38;75.42
69574;BME280;62840;52.366;5.980;2024-01-30T05:21:57;102391.59;;;5.39;75.40
69574;BME280;62840;52.366;5.980;2024-01-30T05:24:23;102391.59;;;5.39;75.55
69574;BME280;62840;52.366;5.980;2024-01-30T05:26:48;102393.22;;;5.43;75.37
69574;BME280;62840;52.366;5.980;2024-01-30T05:29:17;102394.03;;;5.45;75.38
69574;BME280;62840;52.366;5.980;2024-01-30T05:31:43;102405.44;;;5.47;75.33
69574;BME280;62840;52.366;5.980;2024-01-30T05:34:09;102407.16;;;5.48;75.56
69574;BME280;62840;52.366;5.980;2024-01-30T05:36:35;102410.69;;;5.49;75.57
69574;BME280;62840;52.366;5.980;2024-01-30T05:39:01;102408.91;;;5.49;75.39
69574;BME280;62840;52.366;5.980;2024-01-30T05:41:27;102403.59;;;5.49;75.32
69574;BME280;62840;52.366;5.980;2024-01-30T05:43:53;102412.34;;;5.51;75.50
69574;BME280;62840;52.366;5.980;2024-01-30T05:46:21;102404.34;;;5.53;75.31
69574;BME280;62840;52.366;5.980;2024-01-30T05:48:47;102403.47;;;5.52;75.52
69574;BME280;62840;52.366;5.980;2024-01-30T05:51:13;102411.31;;;5.55;75.45
69574;BME280;62840;52.366;5.980;2024-01-30T05:53:39;102408.56;;;5.58;75.65
69574;BME280;62840;52.366;5.980;2024-01-30T05:56:06;102396.13;;;5.60;75.48
69574;BME280;62840;52.366;5.980;2024-01-30T05:58:32;102397.84;;;5.61;75.55
69574;BME280;62840;52.366;5.980;2024-01-30T06:00:58;102388.88;;;5.65;75.65
69574;BME280;62840;52.366;5.980;2024-01-30T06:03:26;102382.59;;;5.68;75.63
69574;BME280;62840;52.366;5.980;2024-01-30T06:05:52;102371.03;;;5.71;75.56
69574;BME280;62840;52.366;5.980;2024-01-30T06:08:18;102380.63;;;5.73;75.67
69574;BME280;62840;52.366;5.980;2024-01-30T06:10:44;102376.09;;;5.77;75.61
69574;BME280;62840;52.366;5.980;2024-01-30T06:13:10;102382.22;;;5.79;75.75
69574;BME280;62840;52.366;5.980;2024-01-30T06:15:36;102390.03;;;5.82;75.64
69574;BME280;62840;52.366;5.980;2024-01-30T06:18:02;102374.94;;;5.84;75.51
69574;BME280;62840;52.366;5.980;2024-01-30T06:20:30;102373.91;;;5.88;75.77
69574;BME280;62840;52.366;5.980;2024-01-30T06:22:56;102380.94;;;5.89;75.76
69574;BME280;62840;52.366;5.980;2024-01-30T06:25:22;102372.94;;;5.91;75.51
69574;BME280;62840;52.366;5.980;2024-01-30T06:27:48;102377.25;;;5.93;75.51
69574;BME280;62840;52.366;5.980;2024-01-30T06:30:14;102374.53;;;5.95;75.58
69574;BME280;62840;52.366;5.980;2024-01-30T06:32:40;102374.50;;;5.96;75.55
69574;BME280;62840;52.366;5.980;2024-01-30T06:35:06;102373.50;;;5.99;75.76
69574;BME280;62840;52.366;5.980;2024-01-30T06:37:35;102369.91;;;6.00;75.72
69574;BME280;62840;52.366;5.980;2024-01-30T06:40:01;102375.97;;;6.03;75.85
69574;BME280;62840;52.366;5.980;2024-01-30T06:42:27;102378.50;;;6.06;76.05
69574;BME280;62840;52.366;5.980;2024-01-30T06:44:53;102389.91;;;6.08;75.95
69574;BME280;62840;52.366;5.980;2024-01-30T06:47:19;102380.09;;;6.11;76.18
69574;BME280;62840;52.366;5.980;2024-01-30T06:49:45;102383.56;;;6.13;75.94
69574;BME280;62840;52.366;5.980;2024-01-30T06:52:11;102389.66;;;6.15;75.96
69574;BME280;62840;52.366;5.980;2024-01-30T06:54:39;102374.56;;;6.17;75.73
69574;BME280;62840;52.366;5.980;2024-01-30T06:57:05;102372.78;;;6.17;75.83
69574;BME280;62840;52.366;5.980;2024-01-30T06:59:31;102379.69;;;6.21;75.76
69574;BME280;62840;52.366;5.980;2024-01-30T07:01:57;102379.63;;;6.23;75.95
69574;BME280;62840;52.366;5.980;2024-01-30T07:04:23;102367.16;;;6.25;75.94
69574;BME280;62840;52.366;5.980;2024-01-30T07:06:49;102381.22;;;6.27;75.96
69574;BME280;62840;52.366;5.980;2024-01-30T07:09:14;102374.06;;;6.29;76.02
69574;BME280;62840;52.366;5.980;2024-01-30T07:11:43;102384.66;;;6.29;75.86
69574;BME280;62840;52.366;5.980;2024-01-30T07:14:09;102388.13;;;6.31;75.89
69574;BME280;62840;52.366;5.980;2024-01-30T07:16:35;102387.09;;;6.35;75.81
69574;BME280;62840;52.366;5.980;2024-01-30T07:19:01;102380.84;;;6.36;75.80
69574;BME280;62840;52.366;5.980;2024-01-30T07:21:27;102400.19;;;6.38;75.88
69574;BME280;62840;52.366;5.980;2024-01-30T07:23:53;102395.69;;;6.40;75.76
69574;BME280;62840;52.366;5.980;2024-01-30T07:26:18;102394.78;;;6.41;75.77
69574;BME280;62840;52.366;5.980;2024-01-30T07:28:47;102391.19;;;6.42;75.90
69574;BME280;62840;52.366;5.980;2024-01-30T07:31:13;102391.19;;;6.42;75.93
69574;BME280;62840;52.366;5.980;2024-01-30T07:33:39;102402.56;;;6.46;75.92
69574;BME280;62840;52.366;5.980;2024-01-30T07:36:05;102391.97;;;6.46;76.18
69574;BME280;62840;52.366;5.980;2024-01-30T07:38:31;102387.50;;;6.46;76.05
69574;BME280;62840;52.366;5.980;2024-01-30T07:40:57;102390.03;;;6.49;76.13
69574;BME280;62840;52.366;5.980;2024-01-30T07:43:23;102382.06;;;6.49;76.28
69574;BME280;62840;52.366;5.980;2024-01-30T07:45:52;102398.78;;;6.51;76.14
69574;BME280;62840;52.366;5.980;2024-01-30T07:48:18;102404.78;;;6.57;76.29
69574;BME280;62840;52.366;5.980;2024-01-30T07:50:44;102401.06;;;6.61;76.27
69574;BME280;62840;52.366;5.980;2024-01-30T07:53:10;102399.22;;;6.63;76.20
69574;BME280;62840;52.366;5.980;2024-01-30T07:55:36;102405.25;;;6.66;76.20
69574;BME280;62840;52.366;5.980;2024-01-30T07:58:02;102403.41;;;6.68;76.14
69574;BME280;62840;52.366;5.980;2024-01-30T08:00:28;102423.63;;;6.71;76.33
69574;BME280;62840;52.366;5.980;2024-01-30T08:02:57;102410.31;;;6.72;76.06
69574;BME280;62840;52.366;5.980;2024-01-30T08:05:23;102411.03;;;6.76;76.39
69574;BME280;62840;52.366;5.980;2024-01-30T08:07:49;102418.94;;;6.78;76.42
69574;BME280;62840;52.366;5.980;2024-01-30T08:10:15;102417.94;;;6.80;76.45
69574;BME280;62840;52.366;5.980;2024-01-30T08:12:41;102406.34;;;6.83;76.58
69574;BME280;62840;52.366;5.980;2024-01-30T08:15:08;102413.25;;;6.87;76.66
69574;BME280;62840;52.366;5.980;2024-01-30T08:17:34;102420.16;;;6.91;76.60
69574;BME280;62840;52.366;5.980;2024-01-30T08:20:03;102419.16;;;6.93;76.58
69574;BME280;62840;52.366;5.980;2024-01-30T08:22:30;102426.06;;;6.98;76.79
69574;BME280;62840;52.366;5.980;2024-01-30T08:24:56;102424.06;;;7.03;76.86
69574;BME280;62840;52.366;5.980;2024-01-30T08:27:22;102416.78;;;7.08;76.97
69574;BME280;62840;52.366;5.980;2024-01-30T08:29:48;102428.88;;;7.15;76.98
69574;BME280;62840;52.366;5.980;2024-01-30T08:32:14;102427.72;;;7.21;77.10
69574;BME280;62840;52.366;5.980;2024-01-30T08:34:40;102426.53;;;7.28;76.91
69574;BME280;62840;52.366;5.980;2024-01-30T08:37:08;102421.75;;;7.36;77.15
69574;BME280;62840;52.366;5.980;2024-01-30T08:39:34;102424.19;;;7.42;77.04
69574;BME280;62840;52.366;5.980;2024-01-30T08:42:00;102423.84;;;7.50;77.12
69574;BME280;62840;52.366;5.980;2024-01-30T08:44:26;102427.03;;;7.58;77.71
69574;BME280;62840;52.366;5.980;2024-01-30T08:46:52;102413.97;;;7.72;77.45
69574;BME280;62840;52.366;5.980;2024-01-30T08:49:17;102422.31;;;7.84;77.36
69574;BME280;62840;52.366;5.980;2024-01-30T08:51:45;102428.00;;;7.95;77.49
69574;BME280;62840;52.366;5.980;2024-01-30T08:54:13;102417.72;;;8.06;77.19
69574;BME280;62840;52.366;5.980;2024-01-30T08:56:39;102424.34;;;8.16;77.35
69574;BME280;62840;52.366;5.980;2024-01-30T08:59:05;102427.44;;;8.26;77.33
69574;BME280;62840;52.366;5.980;2024-01-30T09:01:31;102421.59;;;8.37;77.58
69574;BME280;62840;52.366;5.980;2024-01-30T09:03:57;102427.28;;;8.48;77.44
69574;BME280;62840;52.366;5.980;2024-01-30T09:06:23;102427.75;;;8.56;77.34
69574;BME280;62840;52.366;5.980;2024-01-30T09:08:49;102425.56;;;8.65;77.29
69574;BME280;62840;52.366;5.980;2024-01-30T09:11:17;102437.50;;;8.75;77.16
69574;BME280;62840;52.366;5.980;2024-01-30T09:13:43;102428.28;;;8.82;77.00
69574;BME280;62840;52.366;5.980;2024-01-30T09:16:09;102435.84;;;8.90;77.13
69574;BME280;62840;52.366;5.980;2024-01-30T09:18:35;102431.16;;;8.95;76.91
69574;BME280;62840;52.366;5.980;2024-01-30T09:21:01;102442.13;;;9.06;76.94
69574;BME280;62840;52.366;5.980;2024-01-30T09:23:27;102430.31;;;9.12;76.74
69574;BME280;62840;52.366;5.980;2024-01-30T09:25:53;102432.69;;;9.18;76.88
69574;BME280;62840;52.366;5.980;2024-01-30T09:28:22;102429.69;;;9.24;76.74
69574;BME280;62840;52.366;5.980;2024-01-30T09:30:48;102429.41;;;9.30;76.70
69574;BME280;62840;52.366;5.980;2024-01-30T09:33:14;102432.59;;;9.37;76.74
69574;BME280;62840;52.366;5.980;2024-01-30T09:35:40;102428.69;;;9.44;76.77
69574;BME280;62840;52.366;5.980;2024-01-30T09:38:06;102442.53;;;9.51;76.71
69574;BME280;62840;52.366;5.980;2024-01-30T09:40:31;102442.22;;;9.57;76.82
69574;BME280;62840;52.366;5.980;2024-01-30T09:42:58;102428.59;;;9.63;76.60
69574;BME280;62840;52.366;5.980;2024-01-30T09:45:27;102448.44;;;9.73;76.71
69574;BME280;62840;52.366;5.980;2024-01-30T09:47:53;102446.25;;;9.81;76.30
69574;BME280;62840;52.366;5.980;2024-01-30T09:50:19;102444.19;;;9.87;76.35
69574;BME280;62840;52.366;5.980;2024-01-30T09:52:46;102445.75;;;9.91;76.27
69574;BME280;62840;52.366;5.980;2024-01-30T09:55:12;102438.34;;;9.96;76.55
69574;BME280;62840;52.366;5.980;2024-01-30T09:57:39;102439.91;;;10.00;76.21
69574;BME280;62840;52.366;5.980;2024-01-30T10:00:07;102444.91;;;10.06;76.34
69574;BME280;62840;52.366;5.980;2024-01-30T10:02:36;102442.84;;;10.11;76.03
69574;BME280;62840;52.366;5.980;2024-01-30T10:05:04;102443.63;;;10.13;75.96
69574;BME280;62840;52.366;5.980;2024-01-30T10:07:30;102453.19;;;10.17;76.04
69574;BME280;62840;52.366;5.980;2024-01-30T10:09:56;102449.41;;;10.21;76.07
69574;BME280;62840;52.366;5.980;2024-01-30T10:12:22;102458.84;;;10.27;75.92
69574;BME280;62840;52.366;5.980;2024-01-30T10:14:49;102456.78;;;10.32;75.94
69574;BME280;62840;52.366;5.980;2024-01-30T10:17:14;102452.16;;;10.36;75.74
69574;BME280;62840;52.366;5.980;2024-01-30T10:19:43;102452.75;;;10.41;75.64
69574;BME280;62840;52.366;5.980;2024-01-30T10:22:09;102451.63;;;10.45;75.59
69574;BME280;62840;52.366;5.980;2024-01-30T10:24:35;102456.78;;;10.48;75.43
69574;BME280;62840;52.366;5.980;2024-01-30T10:27:02;102465.56;;;10.50;75.47
69574;BME280;62840;52.366;5.980;2024-01-30T10:29:28;102456.63;;;10.51;75.37
69574;BME280;62840;52.366;5.980;2024-01-30T10:31:58;102461.97;;;10.51;75.34
69574;BME280;62840;52.366;5.980;2024-01-30T10:34:24;102460.16;;;10.52;75.42
69574;BME280;62840;52.366;5.980;2024-01-30T10:36:59;102459.19;;;10.53;75.46
69574;BME280;62840;52.366;5.980;2024-01-30T10:39:37;102455.53;;;10.55;75.33
69574;BME280;62840;52.366;5.980;2024-01-30T10:42:05;102450.97;;;10.57;75.27
69574;BME280;62840;52.366;5.980;2024-01-30T10:44:37;102451.69;;;10.59;75.14
69574;BME280;62840;52.366;5.980;2024-01-30T10:47:18;102456.09;;;10.60;75.04
69574;BME280;62840;52.366;5.980;2024-01-30T10:49:51;102463.00;;;10.64;75.12
69574;BME280;62840;52.366;5.980;2024-01-30T10:52:23;102450.44;;;10.66;74.91
69574;BME280;62840;52.366;5.980;2024-01-30T10:54:50;102461.09;;;10.66;75.13
69574;BME280;62840;52.366;5.980;2024-01-30T10:57:17;102461.09;;;10.66;74.80
69574;BME280;62840;52.366;5.980;2024-01-30T10:59:44;102460.22;;;10.66;74.83
69574;BME280;62840;52.366;5.980;2024-01-30T11:02:11;102474.44;;;10.66;74.96
69574;BME280;62840;52.366;5.980;2024-01-30T11:04:41;102475.22;;;10.69;74.90
69574;BME280;62840;52.366;5.980;2024-01-30T11:07:16;102471.66;;;10.68;74.89
69574;BME280;62840;52.366;5.980;2024-01-30T11:09:51;102459.22;;;10.69;74.99
69574;BME280;62840;52.366;5.980;2024-01-30T11:12:22;102462.63;;;10.71;74.82
69574;BME280;62840;52.366;5.980;2024-01-30T11:14:48;102474.84;;;10.75;74.65
69574;BME280;62840;52.366;5.980;2024-01-30T11:17:14;102477.34;;;10.78;74.73
69574;BME280;62840;52.366;5.980;2024-01-30T11:19:41;102469.16;;;10.81;74.54
69574;BME280;62840;52.366;5.980;2024-01-30T11:22:07;102475.19;;;10.84;74.55
69574;BME280;62840;52.366;5.980;2024-01-30T11:24:39;102480.38;;;10.87;74.42
69574;BME280;62840;52.366;5.980;2024-01-30T11:27:08;102474.97;;;10.89;74.23
69574;BME280;62840;52.366;5.980;2024-01-30T11:29:35;102465.22;;;10.88;74.45
69574;BME280;62840;52.366;5.980;2024-01-30T11:32:01;102470.41;;;10.91;74.14
69574;BME280;62840;52.366;5.980;2024-01-30T11:34:27;102457.91;;;10.92;74.07
69574;BME280;62840;52.366;5.980;2024-01-30T11:36:56;102465.81;;;10.93;74.07
69574;BME280;62840;52.366;5.980;2024-01-30T11:39:24;102466.31;;;11.00;73.79
69574;BME280;62840;52.366;5.980;2024-01-30T11:41:51;102469.66;;;11.03;74.02
69574;BME280;62840;52.366;5.980;2024-01-30T11:44:20;102471.22;;;11.07;73.62
69574;BME280;62840;52.366;5.980;2024-01-30T11:46:47;102469.31;;;11.10;73.59
69574;BME280;62840;52.366;5.980;2024-01-30T11:49:13;102461.03;;;11.14;73.66
69574;BME280;62840;52.366;5.980;2024-01-30T11:51:40;102462.56;;;11.18;73.70
69574;BME280;62840;52.366;5.980;2024-01-30T11:54:07;102459.63;;;11.23;73.30
69574;BME280;62840;52.366;5.980;2024-01-30T11:56:33;102450.28;;;11.30;73.32
69574;BME280;62840;52.366;5.980;2024-01-30T11:58:59;102459.66;;;11.37;73.08
69574;BME280;62840;52.366;5.980;2024-01-30T12:01:27;102451.09;;;11.46;72.78
69574;BME280;62840;52.366;5.980;2024-01-30T12:03:53;102457.00;;;11.52;72.51
69574;BME280;62840;52.366;5.980;2024-01-30T12:06:19;102459.50;;;11.55;72.16
69574;BME280;62840;52.366;5.980;2024-01-30T12:08:58;102466.38;;;11.59;72.08
69574;BME280;62840;52.366;5.980;2024-01-30T12:11:25;102478.78;;;11.60;71.69
69574;BME280;62840;52.366;5.980;2024-01-30T12:13:52;102468.16;;;11.58;71.44
69574;BME280;62840;52.366;5.980;2024-01-30T12:16:19;102471.72;;;11.59;71.38
69574;BME280;62840;52.366;5.980;2024-01-30T12:18:48;102473.63;;;11.57;71.42
69574;BME280;62840;52.366;5.980;2024-01-30T12:21:16;102470.00;;;11.58;71.13
69574;BME280;62840;52.366;5.980;2024-01-30T12:23:42;102481.72;;;11.55;71.34
69574;BME280;62840;52.366;5.980;2024-01-30T12:26:08;102478.38;;;11.52;71.15
69574;BME280;62840;52.366;5.980;2024-01-30T12:28:35;102481.25;;;11.48;71.36
69574;BME280;62840;52.366;5.980;2024-01-30T12:31:01;102492.13;;;11.45;71.19
69574;BME280;62840;52.366;5.980;2024-01-30T12:33:27;102506.59;;;11.41;71.34
69574;BME280;62840;52.366;5.980;2024-01-30T12:35:56;102505.06;;;11.37;71.08
69574;BME280;62840;52.366;5.980;2024-01-30T12:38:26;102516.31;;;11.28;70.88
69574;BME280;62840;52.366;5.980;2024-01-30T12:40:54;102521.91;;;11.23;71.22
69574;BME280;62840;52.366;5.980;2024-01-30T12:43:20;102523.88;;;11.20;71.07
69574;BME280;62840;52.366;5.980;2024-01-30T12:45:47;102532.09;;;11.17;70.79
69574;BME280;62840;52.366;5.980;2024-01-30T12:48:13;102527.88;;;11.13;70.68
69574;BME280;62840;52.366;5.980;2024-01-30T12:50:38;102528.91;;;11.10;70.19
69574;BME280;62840;52.366;5.980;2024-01-30T12:53:07;102521.16;;;11.05;70.50
69574;BME280;62840;52.366;5.980;2024-01-30T12:55:33;102526.69;;;11.02;70.53